sensor_id;sensor_type;location;lat;lon;timestamp;pressure;altitude;pressure_sealevel;temperature;humidity
43503;BME280;29098;48.184;16.298;2023-12-20T00:00:21;99185.50;;;0.23;100.00
43503;BME280;29098;48.184;16.298;2023-12-20T00:02:46;99185.25;;;0.26;100.00
43503;BME280;29098;48.184;16.298;2023-12-20T00:05:13;99237.38;;;0.35;100.00
43503;BME280;29098;48.184;16.298;2023-12-20T00:07:39;99184.44;;;0.15;100.00
43503;BME280;29098;48.184;16.298;2023-12-20T00:10:05;99236.06;;;0.29;100.00
43503;BME280;29098;48.184;16.298;2023-12-20T00:12:31;99234.28;;;0.18;100.00
43503;BME280;29098;48.184;16.298;2023-12-20T00:14:56;99215.69;;;0.13;100.00
43503;BME280;29098;48.184;16.298;2023-12-20T00:17:22;99189.03;;;0.11;100.00
43503;BME280;29098;48.184;16.298;2023-12-20T00:19:47;99237.69;;;0.07;100.00
43503;BME280;29098;48.184;16.298;2023-12-20T00:22:12;99217.94;;;0.18;100.00
43503;BME280;29098;48.184;16.298;2023-12-20T00:24:38;99216.03;;;0.20;100.00
43503;BME280;29098;48.184;16.298;2023-12-20T00:27:03;99260.09;;;0.08;100.00
43503;BME280;29098;48.184;16.298;2023-12-20T00:29:29;99144.41;;;-0.38;100.00
43503;BME280;29098;48.184;16.298;2023-12-20T00:31:54;99189.75;;;-0.10;100.00
43503;BME280;29098;48.184;16.298;2023-12-20T00:34:20;99223.94;;;0.07;100.00
43503;BME280;29098;48.184;16.298;2023-12-20T00:36:45;99247.38;;;0.17;100.00
43503;BME280;29098;48.184;16.298;2023-12-20T00:39:11;99207.06;;;0.12;100.00
43503;BME280;29098;48.184;16.298;2023-12-20T00:41:37;99216.63;;;0.12;100.00
43503;BME280;29098;48.184;16.298;2023-12-20T00:44:02;99200.38;;;-0.02;100.00
43503;BME280;29098;48.184;16.298;2023-12-20T00:46:28;99234.78;;;0.23;100.00
43503;BME280;29098;48.184;16.298;2023-12-20T00:48:53;99191.75;;;0.09;100.00
43503;BME280;29098;48.184;16.298;2023-12-20T00:51:19;99221.22;;;0.08;100.00
43503;BME280;29098;48.184;16.298;2023-12-20T00:53:44;99164.88;;;-0.24;100.00
43503;BME280;29098;48.184;16.298;2023-12-20T00:56:10;99172.31;;;-0.08;100.00
43503;BME280;29098;48.184;16.298;2023-12-20T00:58:35;99201.63;;;0.50;100.00
43503;BME280;29098;48.184;16.298;2023-12-20T01:01:01;99243.84;;;0.18;100.00
43503;BME280;29098;48.184;16.298;2023-12-20T01:03:27;99234.06;;;0.10;100.00
43503;BME280;29098;48.184;16.298;2023-12-20T01:05:53;99215.88;;;-0.13;100.00
43503;BME280;29098;48.184;16.298;2023-12-20T01:08:18;99216.16;;;0.07;100.00
43503;BME280;29098;48.184;16.298;2023-12-20T01:10:44;99175.34;;;-0.37;100.00
43503;BME280;29098;48.184;16.298;2023-12-20T01:13:12;99193.97;;;-0.20;100.00
43503;BME280;29098;48.184;16.298;2023-12-20T01:15:37;99235.09;;;-0.04;100.00
43503;BME280;29098;48.184;16.298;2023-12-20T01:18:03;99212.84;;;-0.18;100.00
43503;BME280;29098;48.184;16.298;2023-12-20T01:20:29;99231.91;;;-0.08;100.00
43503;BME280;29098;48.184;16.298;2023-12-20T01:22:55;99197.41;;;-0.08;100.00
43503;BME280;29098;48.184;16.298;2023-12-20T01:25:20;99200.47;;;-0.15;100.00
43503;BME280;29098;48.184;16.298;2023-12-20T01:27:46;99205.53;;;-0.02;100.00
43503;BME280;29098;48.184;16.298;2023-12-20T01:30:12;99198.00;;;0.07;100.00
43503;BME280;29098;48.184;16.298;2023-12-20T01:32:38;99174.44;;;-0.02;100.00
43503;BME280;29098;48.184;16.298;2023-12-20T01:35:03;99162.66;;;-0.17;100.00
43503;BME280;29098;48.184;16.298;2023-12-20T01:37:29;99195.53;;;0.05;100.00
43503;BME280;29098;48.184;16.298;2023-12-20T01:39:55;99203.19;;;0.07;100.00
43503;BME280;29098;48.184;16.298;2023-12-20T01:42:21;99154.41;;;0.01;100.00
43503;BME280;29098;48.184;16.298;2023-12-20T01:44:47;99140.16;;;-0.05;100.00
43503;BME280;29098;48.184;16.298;2023-12-20T01:47:13;99169.72;;;0.04;100.00
43503;BME280;29098;48.184;16.298;2023-12-20T01:49:39;99192.81;;;0.18;100.00
43503;BME280;29098;48.184;16.298;2023-12-20T01:52:05;99153.00;;;0.08;100.00
43503;BME280;29098;48.184;16.298;2023-12-20T01:54:32;99162.66;;;0.06;100.00
43503;BME280;29098;48.184;16.298;2023-12-20T01:56:57;99104.84;;;-0.29;100.00
43503;BME280;29098;48.184;16.298;2023-12-20T01:59:23;99104.94;;;-0.08;100.00
43503;BME280;29098;48.184;16.298;2023-12-20T02:01:48;99114.59;;;-0.21;100.00
43503;BME280;29098;48.184;16.298;2023-12-20T02:04:15;99159.25;;;0.17;100.00
43503;BME280;29098;48.184;16.298;2023-12-20T02:06:42;99068.34;;;-0.37;100.00
43503;BME280;29098;48.184;16.298;2023-12-20T02:09:08;99120.00;;;0.10;100.00
43503;BME280;29098;48.184;16.298;2023-12-20T02:11:34;99147.59;;;-0.01;100.00
43503;BME280;29098;48.184;16.298;2023-12-20T02:14:01;99097.50;;;-0.01;100.00
43503;BME280;29098;48.184;16.298;2023-12-20T02:16:26;99107.03;;;0.10;100.00
43503;BME280;29098;48.184;16.298;2023-12-20T02:18:52;99050.50;;;0.04;100.00
43503;BME280;29098;48.184;16.298;2023-12-20T02:21:18;99057.56;;;0.02;100.00
43503;BME280;29098;48.184;16.298;2023-12-20T02:23:43;99056.84;;;0.11;100.00
43503;BME280;29098;48.184;16.298;2023-12-20T02:26:08;99064.44;;;0.35;100.00
43503;BME280;29098;48.184;16.298;2023-12-20T02:28:34;99093.34;;;0.31;100.00
43503;BME280;29098;48.184;16.298;2023-12-20T02:31:00;99070.38;;;0.15;100.00
43503;BME280;29098;48.184;16.298;2023-12-20T02:33:26;99028.22;;;0.12;100.00
43503;BME280;29098;48.184;16.298;2023-12-20T02:35:52;99019.50;;;1.41;100.00
43503;BME280;29098;48.184;16.298;2023-12-20T02:38:18;99030.47;;;1.86;100.00
43503;BME280;29098;48.184;16.298;2023-12-20T02:40:43;99011.13;;;3.07;94.55
43503;BME280;29098;48.184;16.298;2023-12-20T02:43:09;99025.00;;;4.37;84.97
43503;BME280;29098;48.184;16.298;2023-12-20T02:45:34;99024.97;;;4.74;81.30
43503;BME280;29098;48.184;16.298;2023-12-20T02:48:00;99044.06;;;4.74;81.25
43503;BME280;29098;48.184;16.298;2023-12-20T02:50:26;99046.31;;;5.14;78.94
43503;BME280;29098;48.184;16.298;2023-12-20T02:52:51;99051.47;;;5.32;77.10
43503;BME280;29098;48.184;16.298;2023-12-20T02:55:17;99052.63;;;5.38;76.66
43503;BME280;29098;48.184;16.298;2023-12-20T02:57:42;99045.59;;;5.30;76.67
43503;BME280;29098;48.184;16.298;2023-12-20T03:00:09;99070.59;;;5.32;77.74
43503;BME280;29098;48.184;16.298;2023-12-20T03:02:35;99058.91;;;5.18;78.83
43503;BME280;29098;48.184;16.298;2023-12-20T03:05:01;99044.41;;;5.24;76.96
43503;BME280;29098;48.184;16.298;2023-12-20T03:07:27;99041.91;;;4.70;76.57
43503;BME280;29098;48.184;16.298;2023-12-20T03:09:52;99020.81;;;3.80;78.45
43503;BME280;29098;48.184;16.298;2023-12-20T03:12:17;99056.53;;;3.42;81.46
43503;BME280;29098;48.184;16.298;2023-12-20T03:14:43;98996.09;;;2.91;83.73
43503;BME280;29098;48.184;16.298;2023-12-20T03:17:09;99029.75;;;3.12;83.05
43503;BME280;29098;48.184;16.298;2023-12-20T03:19:35;99053.09;;;2.94;82.76
43503;BME280;29098;48.184;16.298;2023-12-20T03:22:00;99050.66;;;2.43;84.69
43503;BME280;29098;48.184;16.298;2023-12-20T03:24:26;99019.13;;;1.97;87.22
43503;BME280;29098;48.184;16.298;2023-12-20T03:26:51;98968.97;;;1.55;88.96
43503;BME280;29098;48.184;16.298;2023-12-20T03:29:17;99057.25;;;1.86;90.21
43503;BME280;29098;48.184;16.298;2023-12-20T03:31:42;99044.91;;;1.38;90.08
43503;BME280;29098;48.184;16.298;2023-12-20T03:34:08;99013.25;;;1.13;90.47
43503;BME280;29098;48.184;16.298;2023-12-20T03:36:33;99061.16;;;1.08;91.56
43503;BME280;29098;48.184;16.298;2023-12-20T03:38:59;99032.59;;;1.08;91.92
43503;BME280;29098;48.184;16.298;2023-12-20T03:41:24;99058.13;;;1.03;91.81
43503;BME280;29098;48.184;16.298;2023-12-20T03:43:49;99014.88;;;0.50;93.57
43503;BME280;29098;48.184;16.298;2023-12-20T03:46:15;99036.53;;;0.60;94.46
43503;BME280;29098;48.184;16.298;2023-12-20T03:48:40;98946.28;;;-0.11;96.88
43503;BME280;29098;48.184;16.298;2023-12-20T03:51:06;98957.84;;;-0.16;97.83
43503;BME280;29098;48.184;16.298;2023-12-20T03:53:31;98998.84;;;0.23;97.18
43503;BME280;29098;48.184;16.298;2023-12-20T03:55:57;99061.53;;;0.17;98.63
43503;BME280;29098;48.184;16.298;2023-12-20T03:58:22;99028.31;;;0.11;98.78
43503;BME280;29098;48.184;16.298;2023-12-20T04:00:48;99002.25;;;-0.09;99.41
43503;BME280;29098;48.184;16.298;2023-12-20T04:03:14;99028.13;;;0.03;98.82
43503;BME280;29098;48.184;16.298;2023-12-20T04:05:40;99018.00;;;-0.01;98.78
43503;BME280;29098;48.184;16.298;2023-12-20T04:08:07;99032.06;;;0.18;97.80
43503;BME280;29098;48.184;16.298;2023-12-20T04:10:33;98999.06;;;-0.12;98.90
43503;BME280;29098;48.184;16.298;2023-12-20T04:12:59;99010.28;;;-0.35;98.40
43503;BME280;29098;48.184;16.298;2023-12-20T04:15:24;99004.16;;;-0.22;97.50
43503;BME280;29098;48.184;16.298;2023-12-20T04:17:50;99044.66;;;-0.10;98.20
43503;BME280;29098;48.184;16.298;2023-12-20T04:20:16;99004.88;;;-0.43;100.00
43503;BME280;29098;48.184;16.298;2023-12-20T04:22:44;99060.09;;;-0.20;99.46
43503;BME280;29098;48.184;16.298;2023-12-20T04:25:10;99025.59;;;-0.54;100.00
43503;BME280;29098;48.184;16.298;2023-12-20T04:27:35;99021.38;;;-0.56;100.00
43503;BME280;29098;48.184;16.298;2023-12-20T04:30:01;99031.84;;;-0.46;100.00
43503;BME280;29098;48.184;16.298;2023-12-20T04:32:26;99008.28;;;-0.54;100.00
43503;BME280;29098;48.184;16.298;2023-12-20T04:34:52;99037.59;;;-0.31;100.00
43503;BME280;29098;48.184;16.298;2023-12-20T04:37:17;98993.94;;;-0.35;100.00
43503;BME280;29098;48.184;16.298;2023-12-20T04:39:43;99010.06;;;-0.54;100.00
43503;BME280;29098;48.184;16.298;2023-12-20T04:42:09;99046.22;;;-0.30;100.00
43503;BME280;29098;48.184;16.298;2023-12-20T04:44:34;99033.47;;;-0.33;100.00
43503;BME280;29098;48.184;16.298;2023-12-20T04:47:00;99044.91;;;-0.24;100.00
43503;BME280;29098;48.184;16.298;2023-12-20T04:49:26;99051.69;;;-0.12;100.00
43503;BME280;29098;48.184;16.298;2023-12-20T04:51:52;99067.47;;;0.08;100.00
43503;BME280;29098;48.184;16.298;2023-12-20T04:54:18;99027.72;;;0.19;100.00
43503;BME280;29098;48.184;16.298;2023-12-20T04:56:43;99035.53;;;0.07;100.00
43503;BME280;29098;48.184;16.298;2023-12-20T04:59:09;99018.44;;;0.16;100.00
43503;BME280;29098;48.184;16.298;2023-12-20T05:01:35;98983.94;;;1.42;100.00
43503;BME280;29098;48.184;16.298;2023-12-20T05:04:01;98966.44;;;1.95;100.00
43503;BME280;29098;48.184;16.298;2023-12-20T05:06:27;99045.66;;;3.09;100.00
43503;BME280;29098;48.184;16.298;2023-12-20T05:08:52;99018.59;;;3.29;99.26
43503;BME280;29098;48.184;16.298;2023-12-20T05:11:18;98999.03;;;3.81;99.01
43503;BME280;29098;48.184;16.298;2023-12-20T05:13:44;98944.63;;;4.23;98.06
43503;BME280;29098;48.184;16.298;2023-12-20T05:16:09;98989.16;;;4.66;96.54
43503;BME280;29098;48.184;16.298;2023-12-20T05:18:35;98931.78;;;4.74;94.23
43503;BME280;29098;48.184;16.298;2023-12-20T05:21:00;98964.03;;;5.18;93.79
43503;BME280;29098;48.184;16.298;2023-12-20T05:23:26;98966.19;;;5.31;92.61
43503;BME280;29098;48.184;16.298;2023-12-20T05:25:51;98989.22;;;5.70;91.88
43503;BME280;29098;48.184;16.298;2023-12-20T05:28:17;99020.66;;;5.95;90.72
43503;BME280;29098;48.184;16.298;2023-12-20T05:30:42;98992.69;;;5.79;90.68
43503;BME280;29098;48.184;16.298;2023-12-20T05:33:08;98978.94;;;5.77;90.52
43503;BME280;29098;48.184;16.298;2023-12-20T05:35:34;99027.78;;;6.11;89.86
43503;BME280;29098;48.184;16.298;2023-12-20T05:38:00;98994.66;;;5.85;89.76
43503;BME280;29098;48.184;16.298;2023-12-20T05:40:25;98999.50;;;6.23;88.22
43503;BME280;29098;48.184;16.298;2023-12-20T05:42:50;99032.25;;;6.36;88.62
43503;BME280;29098;48.184;16.298;2023-12-20T05:45:16;99044.03;;;6.40;88.32
43503;BME280;29098;48.184;16.298;2023-12-20T05:47:41;98971.97;;;6.02;88.08
43503;BME280;29098;48.184;16.298;2023-12-20T05:50:07;99043.53;;;6.53;86.26
43503;BME280;29098;48.184;16.298;2023-12-20T05:52:33;99010.13;;;6.47;85.65
43503;BME280;29098;48.184;16.298;2023-12-20T05:54:58;99009.63;;;6.35;86.15
43503;BME280;29098;48.184;16.298;2023-12-20T05:57:26;99047.28;;;6.50;86.12
43503;BME280;29098;48.184;16.298;2023-12-20T05:59:52;99056.13;;;6.66;86.06
43503;BME280;29098;48.184;16.298;2023-12-20T06:02:18;99019.66;;;6.39;85.48
43503;BME280;29098;48.184;16.298;2023-12-20T06:04:43;99012.94;;;6.45;85.80
43503;BME280;29098;48.184;16.298;2023-12-20T06:07:11;99005.56;;;6.32;85.79
43503;BME280;29098;48.184;16.298;2023-12-20T06:09:37;99001.13;;;6.49;84.99
43503;BME280;29098;48.184;16.298;2023-12-20T06:12:03;99031.91;;;6.47;85.99
43503;BME280;29098;48.184;16.298;2023-12-20T06:14:29;99009.66;;;6.60;84.45
43503;BME280;29098;48.184;16.298;2023-12-20T06:16:56;99048.78;;;6.94;82.49
43503;BME280;29098;48.184;16.298;2023-12-20T06:19:22;98972.34;;;6.49;82.91
43503;BME280;29098;48.184;16.298;2023-12-20T06:21:47;99070.75;;;6.93;81.93
43503;BME280;29098;48.184;16.298;2023-12-20T06:24:12;99005.72;;;6.64;81.63
43503;BME280;29098;48.184;16.298;2023-12-20T06:26:38;98999.84;;;6.53;81.55
43503;BME280;29098;48.184;16.298;2023-12-20T06:29:03;99016.84;;;6.57;81.63
43503;BME280;29098;48.184;16.298;2023-12-20T06:31:29;99029.94;;;6.66;82.84
43503;BME280;29098;48.184;16.298;2023-12-20T06:33:55;99046.97;;;6.87;81.08
43503;BME280;29098;48.184;16.298;2023-12-20T06:36:23;99036.66;;;6.77;81.10
43503;BME280;29098;48.184;16.298;2023-12-20T06:38:48;99085.97;;;6.90;81.59
43503;BME280;29098;48.184;16.298;2023-12-20T06:41:15;99072.19;;;6.88;81.20
43503;BME280;29098;48.184;16.298;2023-12-20T06:43:42;99046.34;;;6.76;80.34
43503;BME280;29098;48.184;16.298;2023-12-20T06:46:07;99045.34;;;6.69;81.08
43503;BME280;29098;48.184;16.298;2023-12-20T06:48:34;99070.88;;;7.00;80.63
43503;BME280;29098;48.184;16.298;2023-12-20T06:51:01;99089.53;;;6.97;81.49
43503;BME280;29098;48.184;16.298;2023-12-20T06:53:30;99048.28;;;6.99;81.14
43503;BME280;29098;48.184;16.298;2023-12-20T06:55:55;99065.28;;;7.20;81.14
43503;BME280;29098;48.184;16.298;2023-12-20T06:58:24;99049.25;;;7.15;81.12
43503;BME280;29098;48.184;16.298;2023-12-20T07:00:50;98998.78;;;7.04;81.14
43503;BME280;29098;48.184;16.298;2023-12-20T07:03:17;99054.81;;;7.11;81.33
43503;BME280;29098;48.184;16.298;2023-12-20T07:05:43;99040.06;;;7.19;80.91
43503;BME280;29098;48.184;16.298;2023-12-20T07:08:08;99031.22;;;7.03;81.23
43503;BME280;29098;48.184;16.298;2023-12-20T07:10:34;99033.56;;;6.98;81.21
43503;BME280;29098;48.184;16.298;2023-12-20T07:13:00;99002.09;;;6.98;80.07
43503;BME280;29098;48.184;16.298;2023-12-20T07:15:25;99045.47;;;7.17;79.69
43503;BME280;29098;48.184;16.298;2023-12-20T07:17:52;99028.09;;;7.08;79.42
43503;BME280;29098;48.184;16.298;2023-12-20T07:20:17;99036.47;;;7.11;79.71
43503;BME280;29098;48.184;16.298;2023-12-20T07:22:43;99030.28;;;6.88;79.40
43503;BME280;29098;48.184;16.298;2023-12-20T07:25:08;99024.03;;;6.89;80.02
43503;BME280;29098;48.184;16.298;2023-12-20T07:27:34;99017.53;;;6.68;81.90
43503;BME280;29098;48.184;16.298;2023-12-20T07:29:59;99076.16;;;6.75;84.68
43503;BME280;29098;48.184;16.298;2023-12-20T07:32:24;99044.72;;;6.67;83.74
43503;BME280;29098;48.184;16.298;2023-12-20T07:34:50;99097.41;;;6.97;84.65
43503;BME280;29098;48.184;16.298;2023-12-20T07:37:15;99052.22;;;6.53;85.90
43503;BME280;29098;48.184;16.298;2023-12-20T07:39:41;99104.63;;;6.87;85.12
43503;BME280;29098;48.184;16.298;2023-12-20T07:42:08;99073.84;;;6.80;84.15
43503;BME280;29098;48.184;16.298;2023-12-20T07:44:34;99069.25;;;6.66;83.77
43503;BME280;29098;48.184;16.298;2023-12-20T07:47:01;99119.06;;;6.99;83.60
43503;BME280;29098;48.184;16.298;2023-12-20T07:49:26;99072.84;;;6.73;84.08
43503;BME280;29098;48.184;16.298;2023-12-20T07:51:52;99055.50;;;6.55;85.61
43503;BME280;29098;48.184;16.298;2023-12-20T07:54:17;99107.59;;;6.83;85.94
43503;BME280;29098;48.184;16.298;2023-12-20T07:56:43;99058.25;;;6.54;88.10
43503;BME280;29098;48.184;16.298;2023-12-20T07:59:09;99081.69;;;6.55;88.33
43503;BME280;29098;48.184;16.298;2023-12-20T08:01:35;99064.81;;;6.50;87.02
43503;BME280;29098;48.184;16.298;2023-12-20T08:04:01;99064.16;;;6.39;87.30
43503;BME280;29098;48.184;16.298;2023-12-20T08:06:26;99084.63;;;6.52;87.40
43503;BME280;29098;48.184;16.298;2023-12-20T08:08:52;99099.38;;;6.53;87.56
43503;BME280;29098;48.184;16.298;2023-12-20T08:11:19;99139.81;;;6.67;87.61
43503;BME280;29098;48.184;16.298;2023-12-20T08:13:44;99067.25;;;6.43;87.19
43503;BME280;29098;48.184;16.298;2023-12-20T08:16:10;99070.38;;;6.47;86.44
43503;BME280;29098;48.184;16.298;2023-12-20T08:18:38;99107.88;;;6.64;86.80
43503;BME280;29098;48.184;16.298;2023-12-20T08:21:04;99085.94;;;6.48;86.97
43503;BME280;29098;48.184;16.298;2023-12-20T08:23:33;99101.66;;;6.56;86.01
43503;BME280;29098;48.184;16.298;2023-12-20T08:25:58;99116.06;;;6.61;85.76
43503;BME280;29098;48.184;16.298;2023-12-20T08:28:24;99123.44;;;6.57;86.27
43503;BME280;29098;48.184;16.298;2023-12-20T08:30:49;99082.16;;;6.42;85.71
43503;BME280;29098;48.184;16.298;2023-12-20T08:33:19;99108.38;;;6.59;85.87
43503;BME280;29098;48.184;16.298;2023-12-20T08:35:44;99102.00;;;6.62;85.90
43503;BME280;29098;48.184;16.298;2023-12-20T08:38:10;99149.00;;;6.71;86.21
43503;BME280;29098;48.184;16.298;2023-12-20T08:40:35;99078.69;;;6.34;86.34
43503;BME280;29098;48.184;16.298;2023-12-20T08:43:01;99085.25;;;6.38;86.77
43503;BME280;29098;48.184;16.298;2023-12-20T08:45:27;99057.25;;;6.30;86.69
43503;BME280;29098;48.184;16.298;2023-12-20T08:47:52;99082.13;;;6.26;86.70
43503;BME280;29098;48.184;16.298;2023-12-20T08:50:17;99134.03;;;6.39;87.21
43503;BME280;29098;48.184;16.298;2023-12-20T08:52:43;99180.72;;;6.60;87.36
43503;BME280;29098;48.184;16.298;2023-12-20T08:55:09;99116.34;;;6.41;87.38
43503;BME280;29098;48.184;16.298;2023-12-20T08:57:35;99130.94;;;6.43;87.03
43503;BME280;29098;48.184;16.298;2023-12-20T09:00:02;99158.94;;;6.51;86.86
43503;BME280;29098;48.184;16.298;2023-12-20T09:02:28;99133.19;;;6.38;87.34
43503;BME280;29098;48.184;16.298;2023-12-20T09:04:54;99132.88;;;6.33;87.74
43503;BME280;29098;48.184;16.298;2023-12-20T09:07:24;99100.44;;;6.18;88.05
43503;BME280;29098;48.184;16.298;2023-12-20T09:09:50;99121.69;;;6.23;88.88
43503;BME280;29098;48.184;16.298;2023-12-20T09:12:17;99164.47;;;6.48;88.68
43503;BME280;29098;48.184;16.298;2023-12-20T09:14:43;99203.66;;;6.66;88.85
43503;BME280;29098;48.184;16.298;2023-12-20T09:17:09;99211.66;;;6.65;89.29
43503;BME280;29098;48.184;16.298;2023-12-20T09:19:36;99202.66;;;6.59;89.82
43503;BME280;29098;48.184;16.298;2023-12-20T09:22:02;99105.81;;;6.16;90.42
43503;BME280;29098;48.184;16.298;2023-12-20T09:24:27;99157.94;;;6.44;90.60
43503;BME280;29098;48.184;16.298;2023-12-20T09:26:53;99140.53;;;6.26;90.88
43503;BME280;29098;48.184;16.298;2023-12-20T09:29:18;99123.31;;;6.15;91.46
43503;BME280;29098;48.184;16.298;2023-12-20T09:31:44;99133.84;;;6.32;91.66
43503;BME280;29098;48.184;16.298;2023-12-20T09:34:11;99207.56;;;6.62;91.33
43503;BME280;29098;48.184;16.298;2023-12-20T09:36:37;99216.56;;;6.51;92.11
43503;BME280;29098;48.184;16.298;2023-12-20T09:39:05;99143.72;;;6.03;92.73
43503;BME280;29098;48.184;16.298;2023-12-20T09:41:32;99154.56;;;6.17;93.05
43503;BME280;29098;48.184;16.298;2023-12-20T09:44:02;99174.56;;;6.00;94.00
43503;BME280;29098;48.184;16.298;2023-12-20T09:46:28;99120.78;;;5.97;95.24
43503;BME280;29098;48.184;16.298;2023-12-20T09:48:59;99183.31;;;6.09;97.18
43503;BME280;29098;48.184;16.298;2023-12-20T09:51:27;99134.75;;;5.80;98.87
43503;BME280;29098;48.184;16.298;2023-12-20T09:53:54;99158.78;;;5.83;100.00
43503;BME280;29098;48.184;16.298;2023-12-20T09:56:22;99169.31;;;5.92;100.00
43503;BME280;29098;48.184;16.298;2023-12-20T09:58:47;99176.94;;;6.03;100.00
43503;BME280;29098;48.184;16.298;2023-12-20T10:01:14;99144.31;;;5.62;100.00
43503;BME280;29098;48.184;16.298;2023-12-20T10:03:41;99109.44;;;5.27;100.00
43503;BME280;29098;48.184;16.298;2023-12-20T10:06:06;99134.66;;;5.37;100.00
43503;BME280;29098;48.184;16.298;2023-12-20T10:08:32;99100.94;;;5.25;100.00
43503;BME280;29098;48.184;16.298;2023-12-20T10:10:58;99104.88;;;5.29;100.00
43503;BME280;29098;48.184;16.298;2023-12-20T10:13:27;99125.22;;;5.17;100.00
43503;BME280;29098;48.184;16.298;2023-12-20T10:15:55;99157.56;;;5.43;100.00
43503;BME280;29098;48.184;16.298;2023-12-20T10:18:20;99101.41;;;5.20;100.00
43503;BME280;29098;48.184;16.298;2023-12-20T10:20:46;99106.56;;;5.39;100.00
43503;BME280;29098;48.184;16.298;2023-12-20T10:23:12;99063.97;;;5.20;100.00
43503;BME280;29098;48.184;16.298;2023-12-20T10:25:39;99130.88;;;5.57;100.00
43503;BME280;29098;48.184;16.298;2023-12-20T10:28:13;99078.34;;;5.51;100.00
43503;BME280;29098;48.184;16.298;2023-12-20T10:30:39;99102.88;;;5.49;100.00
43503;BME280;29098;48.184;16.298;2023-12-20T10:33:06;99138.44;;;5.69;100.00
43503;BME280;29098;48.184;16.298;2023-12-20T10:35:33;99116.06;;;5.66;100.00
43503;BME280;29098;48.184;16.298;2023-12-20T10:38:03;99113.91;;;5.70;100.00
43503;BME280;29098;48.184;16.298;2023-12-20T10:40:29;99074.53;;;5.71;100.00
43503;BME280;29098;48.184;16.298;2023-12-20T10:42:55;99125.81;;;5.90;100.00
43503;BME280;29098;48.184;16.298;2023-12-20T10:45:22;99078.44;;;5.59;100.00
43503;BME280;29098;48.184;16.298;2023-12-20T10:47:50;99044.22;;;5.52;100.00
43503;BME280;29098;48.184;16.298;2023-12-20T10:50:16;99101.81;;;5.69;100.00
43503;BME280;29098;48.184;16.298;2023-12-20T10:52:42;99101.09;;;5.85;100.00
43503;BME280;29098;48.184;16.298;2023-12-20T10:55:08;99103.72;;;5.85;100.00
43503;BME280;29098;48.184;16.298;2023-12-20T10:57:36;99047.06;;;5.59;100.00
43503;BME280;29098;48.184;16.298;2023-12-20T11:00:02;99032.03;;;5.69;100.00
43503;BME280;29098;48.184;16.298;2023-12-20T11:02:39;99008.34;;;5.62;100.00
43503;BME280;29098;48.184;16.298;2023-12-20T11:07:48;99096.91;;;6.00;100.00
43503;BME280;29098;48.184;16.298;2023-12-20T11:10:31;99099.97;;;5.87;100.00
43503;BME280;29098;48.184;16.298;2023-12-20T11:13:10;99069.06;;;5.91;100.00
43503;BME280;29098;48.184;16.298;2023-12-20T11:15:37;99004.56;;;5.65;100.00
43503;BME280;29098;48.184;16.298;2023-12-20T11:18:03;99085.84;;;6.07;100.00
43503;BME280;29098;48.184;16.298;2023-12-20T11:20:39;99107.44;;;6.09;100.00
43503;BME280;29098;48.184;16.298;2023-12-20T11:23:06;99030.47;;;5.93;100.00
43503;BME280;29098;48.184;16.298;2023-12-20T11:25:50;99011.16;;;5.78;100.00
43503;BME280;29098;48.184;16.298;2023-12-20T11:28:20;99022.63;;;5.93;100.00
43503;BME280;29098;48.184;16.298;2023-12-20T11:30:54;98982.38;;;5.86;100.00
43503;BME280;29098;48.184;16.298;2023-12-20T11:33:24;99028.19;;;5.90;100.00
43503;BME280;29098;48.184;16.298;2023-12-20T11:35:50;99027.28;;;6.08;100.00
43503;BME280;29098;48.184;16.298;2023-12-20T11:38:16;99034.66;;;6.12;100.00
43503;BME280;29098;48.184;16.298;2023-12-20T11:40:42;99078.69;;;6.34;100.00
43503;BME280;29098;48.184;16.298;2023-12-20T11:43:09;99001.13;;;6.08;100.00
43503;BME280;29098;48.184;16.298;2023-12-20T11:45:34;99034.16;;;6.17;100.00
43503;BME280;29098;48.184;16.298;2023-12-20T11:48:01;99005.88;;;6.21;100.00
43503;BME280;29098;48.184;16.298;2023-12-20T11:50:30;99031.53;;;6.09;100.00
43503;BME280;29098;48.184;16.298;2023-12-20T11:52:56;99002.91;;;6.07;100.00
43503;BME280;29098;48.184;16.298;2023-12-20T11:55:23;99073.16;;;6.45;100.00
43503;BME280;29098;48.184;16.298;2023-12-20T11:57:50;99074.31;;;6.67;99.33
43503;BME280;29098;48.184;16.298;2023-12-20T12:00:16;99094.97;;;6.70;98.87
43503;BME280;29098;48.184;16.298;2023-12-20T12:02:43;99087.91;;;6.63;98.67
43503;BME280;29098;48.184;16.298;2023-12-20T12:05:09;99066.31;;;6.77;97.76
43503;BME280;29098;48.184;16.298;2023-12-20T12:07:37;99038.97;;;6.63;97.51
43503;BME280;29098;48.184;16.298;2023-12-20T12:10:03;99054.84;;;6.78;96.07
43503;BME280;29098;48.184;16.298;2023-12-20T12:12:29;99058.78;;;6.74;96.55
43503;BME280;29098;48.184;16.298;2023-12-20T12:14:55;99020.44;;;6.73;96.16
43503;BME280;29098;48.184;16.298;2023-12-20T12:17:23;99067.63;;;6.90;95.74
43503;BME280;29098;48.184;16.298;2023-12-20T12:19:48;99046.31;;;6.93;95.31
43503;BME280;29098;48.184;16.298;2023-12-20T12:22:15;99041.72;;;6.95;95.67
43503;BME280;29098;48.184;16.298;2023-12-20T12:24:43;99016.53;;;6.85;95.32
43503;BME280;29098;48.184;16.298;2023-12-20T12:27:09;99019.66;;;6.72;95.47
43503;BME280;29098;48.184;16.298;2023-12-20T12:29:36;99045.00;;;7.05;96.00
43503;BME280;29098;48.184;16.298;2023-12-20T12:32:05;98975.28;;;6.54;96.07
43503;BME280;29098;48.184;16.298;2023-12-20T12:34:32;99020.16;;;6.68;96.76
43503;BME280;29098;48.184;16.298;2023-12-20T12:36:59;98992.94;;;6.77;96.51
43503;BME280;29098;48.184;16.298;2023-12-20T12:39:24;99008.84;;;6.67;96.66
43503;BME280;29098;48.184;16.298;2023-12-20T12:41:50;98995.09;;;6.57;96.36
43503;BME280;29098;48.184;16.298;2023-12-20T12:44:16;99007.69;;;6.78;96.12
43503;BME280;29098;48.184;16.298;2023-12-20T12:46:43;98976.91;;;6.72;95.41
43503;BME280;29098;48.184;16.298;2023-12-20T12:49:09;99012.28;;;6.68;94.98
43503;BME280;29098;48.184;16.298;2023-12-20T12:51:34;99054.50;;;6.81;95.88